createdAt,value
2018-08-19T00:01:46.848Z,59.96
2018-08-19T00:04:15.480Z,60.27
2018-08-19T00:06:44.289Z,59.99
2018-08-19T00:09:16.180Z,60.13
2018-08-19T00:11:46.162Z,60.10
2018-08-19T00:14:27.372Z,60.26
2018-08-19T00:16:57.939Z,59.71
2018-08-19T00:19:27.051Z,59.31
2018-08-19T00:21:56.239Z,58.58
2018-08-19T00:24:25.204Z,58.37
2018-08-19T00:27:04.386Z,58.24
2018-08-19T00:29:36.924Z,57.94
2018-08-19T00:32:06.065Z,57.81
2018-08-19T00:34:35.350Z,57.83
2018-08-19T00:37:06.033Z,57.32
2018-08-19T00:39:35.128Z,58.10
2018-08-19T00:42:04.804Z,58.37
2018-08-19T00:44:34.117Z,57.96
2018-08-19T00:47:02.744Z,58.35
2018-08-19T00:49:31.654Z,58.77
2018-08-19T00:52:01.446Z,59.07
2018-08-19T00:54:31.229Z,58.50
2018-08-19T00:57:00.783Z,58.42
2018-08-19T00:59:30.573Z,58.22
2018-08-19T01:01:59.307Z,58.66
2018-08-19T01:04:28.396Z,58.43
2018-08-19T01:06:58.052Z,58.15
2018-08-19T01:09:28.710Z,58.44
2018-08-19T01:11:57.363Z,58.39
2018-08-19T01:14:26.268Z,58.68
2018-08-19T01:16:54.864Z,59.03
2018-08-19T01:19:23.541Z,59.07
2018-08-19T01:21:53.776Z,59.14
2018-08-19T01:24:22.794Z,59.53
2018-08-19T01:26:51.343Z,59.68
2018-08-19T01:29:33.614Z,58.92
2018-08-19T01:32:09.213Z,59.37
2018-08-19T01:34:38.677Z,59.20
2018-08-19T01:37:07.695Z,59.07
2018-08-19T01:39:37.984Z,59.83
2018-08-19T01:44:56.678Z,59.41
2018-08-19T01:47:25.224Z,59.63
2018-08-19T01:50:05.197Z,59.08
2018-08-19T01:52:33.747Z,58.93
2018-08-19T01:55:02.459Z,59.49
2018-08-19T01:57:36.090Z,59.62
2018-08-19T02:00:04.744Z,59.56
2018-08-19T02:02:39.568Z,59.42
2018-08-19T02:05:08.129Z,59.88
2018-08-19T02:07:37.001Z,60.00
2018-08-19T02:10:08.375Z,61.03
2018-08-19T02:12:39.888Z,61.18
2018-08-19T02:15:09.636Z,61.92
2018-08-19T02:17:43.275Z,61.42
2018-08-19T02:20:11.867Z,61.51
2018-08-19T02:22:42.575Z,61.37
2018-08-19T02:25:11.484Z,61.35
2018-08-19T02:27:40.387Z,61.44
2018-08-19T02:30:09.092Z,61.79
2018-08-19T02:32:37.726Z,61.73
2018-08-19T02:35:06.673Z,61.90
2018-08-19T02:37:35.250Z,62.44
2018-08-19T02:40:03.888Z,61.54
2018-08-19T02:42:33.229Z,61.64
2018-08-19T02:45:05.221Z,62.06
2018-08-19T02:47:34.871Z,62.62
2018-08-19T02:50:03.655Z,63.49
2018-08-19T02:52:33.613Z,63.36
2018-08-19T02:55:03.668Z,63.39
2018-08-19T02:57:32.998Z,62.38
2018-08-19T03:00:02.646Z,62.01
2018-08-19T03:02:32.938Z,62.20
2018-08-19T03:05:03.305Z,62.21
2018-08-19T03:07:32.762Z,62.47
2018-08-19T03:10:08.561Z,62.61
2018-08-19T03:12:37.253Z,61.93
2018-08-19T03:15:07.378Z,62.33
2018-08-19T03:17:36.204Z,62.36
2018-08-19T03:20:06.802Z,62.11
2018-08-19T03:22:35.732Z,61.71
2018-08-19T03:25:04.363Z,61.84
2018-08-19T03:27:33.841Z,61.95
2018-08-19T03:30:04.627Z,61.71
2018-08-19T03:32:33.230Z,61.42
2018-08-19T03:35:07.510Z,62.62
2018-08-19T03:37:37.487Z,62.74
2018-08-19T03:40:07.408Z,62.52
2018-08-19T03:42:35.982Z,62.22
2018-08-19T03:45:09.836Z,62.71
2018-08-19T03:47:38.397Z,63.19
2018-08-19T03:50:12.028Z,63.22
2018-08-19T03:52:43.495Z,63.28
2018-08-19T03:55:20.143Z,63.33
2018-08-19T03:57:49.260Z,63.47
2018-08-19T04:00:18.865Z,62.82
2018-08-19T04:02:48.319Z,62.00
2018-08-19T04:05:16.972Z,62.06
2018-08-19T04:07:45.507Z,61.80
2018-08-19T04:10:17.127Z,61.73
2018-08-19T04:12:45.700Z,61.73
2018-08-19T04:15:15.292Z,61.80
2018-08-19T04:17:43.837Z,61.72
2018-08-19T04:20:12.425Z,61.92
2018-08-19T04:22:41.005Z,62.12
2018-08-19T04:25:09.684Z,62.25
2018-08-19T04:27:38.237Z,63.09
2018-08-19T04:30:06.847Z,62.90
2018-08-19T04:32:35.476Z,63.32
2018-08-19T04:35:04.104Z,63.31
2018-08-19T04:37:32.656Z,63.05
2018-08-19T04:40:01.205Z,62.65
2018-08-19T04:42:29.725Z,62.37
2018-08-19T04:44:58.393Z,62.42
2018-08-19T04:47:31.710Z,62.16
2018-08-19T04:50:00.302Z,62.17
2018-08-19T04:52:28.866Z,62.80
2018-08-19T04:54:57.560Z,62.87
2018-08-19T04:57:26.116Z,62.38
2018-08-19T04:59:54.704Z,63.29
2018-08-19T05:02:23.716Z,62.89
2018-08-19T05:04:52.291Z,63.29
2018-08-19T05:07:20.845Z,63.72
2018-08-19T05:09:49.740Z,63.44
2018-08-19T05:12:32.460Z,63.49
2018-08-19T05:15:01.006Z,63.58
2018-08-19T05:17:29.594Z,63.75
2018-08-19T05:20:16.089Z,62.81
2018-08-19T05:22:44.952Z,63.04
2018-08-19T05:25:13.616Z,62.96
2018-08-19T05:27:42.169Z,62.69
2018-08-19T05:30:10.776Z,62.33
2018-08-19T05:32:47.034Z,62.03
2018-08-19T05:35:15.600Z,62.04
2018-08-19T05:37:44.944Z,61.50
2018-08-19T05:40:13.504Z,61.86
2018-08-19T05:42:42.129Z,61.99
2018-08-19T05:45:11.035Z,62.48
2018-08-19T05:47:39.591Z,61.38
2018-08-19T05:50:08.245Z,61.26
2018-08-19T05:52:36.828Z,61.13
2018-08-19T05:55:05.439Z,61.18
2018-08-19T05:57:35.064Z,61.34
2018-08-19T06:00:08.899Z,60.95
2018-08-19T06:02:43.241Z,60.55
2018-08-19T06:05:12.091Z,61.27
2018-08-19T06:07:41.070Z,60.90
2018-08-19T06:10:10.458Z,60.67
2018-08-19T06:12:39.032Z,59.62
2018-08-19T06:15:07.621Z,59.87
2018-08-19T06:17:36.276Z,59.45
2018-08-19T06:20:05.274Z,59.64
2018-08-19T06:22:39.070Z,59.40
2018-08-19T06:25:07.770Z,58.90
2018-08-19T06:27:50.820Z,58.54
2018-08-19T06:30:20.088Z,58.47
2018-08-19T06:32:48.692Z,57.74
2018-08-19T06:35:17.365Z,56.82
2018-08-19T06:37:46.102Z,56.71
2018-08-19T06:40:17.687Z,56.20
2018-08-19T06:42:46.385Z,55.95
2018-08-19T06:45:15.852Z,55.58
2018-08-19T06:47:44.776Z,54.85
2018-08-19T06:50:24.403Z,54.32
2018-08-19T06:52:53.813Z,54.51
2018-08-19T06:55:22.712Z,54.69
2018-08-19T06:57:51.319Z,54.33
2018-08-19T07:00:34.205Z,53.45
2018-08-19T07:03:04.508Z,52.94
2018-08-19T07:05:33.958Z,52.32
2018-08-19T07:08:02.812Z,52.16
2018-08-19T07:10:37.364Z,51.21
2018-08-19T07:13:14.810Z,49.64
2018-08-19T07:15:44.444Z,49.32
2018-08-19T07:21:15.372Z,47.03
2018-08-19T07:23:44.142Z,46.31
2018-08-19T07:26:12.649Z,46.91
2018-08-19T07:28:41.216Z,47.03
2018-08-19T07:31:09.848Z,47.00
2018-08-19T07:33:38.393Z,46.67
2018-08-19T07:36:06.950Z,46.55
2018-08-19T07:38:35.502Z,46.19
2018-08-19T07:41:04.233Z,46.18
2018-08-19T07:43:32.908Z,46.54
2018-08-19T07:46:01.471Z,45.86
2018-08-19T07:48:30.081Z,44.24
2018-08-19T07:50:59.430Z,44.82
2018-08-19T07:53:27.988Z,43.33
2018-08-19T07:55:56.570Z,44.21
2018-08-19T07:58:36.113Z,43.81
2018-08-19T08:01:04.734Z,42.82
2018-08-19T08:03:33.415Z,42.92
2018-08-19T08:06:02.208Z,42.28
2018-08-19T08:08:30.968Z,42.06
2018-08-19T08:10:59.598Z,42.24
2018-08-19T08:13:28.234Z,41.79
2018-08-19T08:15:57.890Z,41.50
2018-08-19T08:18:26.564Z,41.54
2018-08-19T08:21:04.638Z,41.17
2018-08-19T08:23:33.348Z,41.77
2018-08-19T08:26:01.952Z,41.22
2018-08-19T08:28:30.520Z,40.94
2018-08-19T08:30:59.124Z,41.16
2018-08-19T08:33:27.788Z,40.62
2018-08-19T08:35:57.712Z,41.15
2018-08-19T08:38:26.485Z,40.50
2018-08-19T08:40:55.635Z,41.13
2018-08-19T08:43:24.362Z,40.99
2018-08-19T08:45:56.032Z,40.12
2018-08-19T08:48:24.639Z,39.93
2018-08-19T08:50:53.420Z,39.87
2018-08-19T08:53:22.151Z,38.76
2018-08-19T08:55:50.840Z,38.80
2018-08-19T08:58:19.432Z,39.42
2018-08-19T09:00:48.051Z,39.24
2018-08-19T09:03:17.550Z,39.28
2018-08-19T09:05:46.116Z,39.22
2018-08-19T09:08:14.745Z,39.08
2018-08-19T09:10:43.305Z,38.18
2018-08-19T09:13:12.662Z,37.38
2018-08-19T09:15:41.205Z,37.61
2018-08-19T09:18:09.790Z,36.76
2018-08-19T09:20:39.076Z,36.86
2018-08-19T09:23:08.982Z,36.45
2018-08-19T09:25:37.452Z,34.90
2018-08-19T09:28:06.036Z,33.57
2018-08-19T09:30:40.185Z,34.42
2018-08-19T09:33:09.355Z,33.64
2018-08-19T09:35:39.160Z,32.91
2018-08-19T09:38:21.419Z,31.87
2018-08-19T09:40:50.247Z,32.08
2018-08-19T09:43:19.065Z,32.26
2018-08-19T09:45:48.201Z,32.78
2018-08-19T09:48:17.197Z,32.57
2018-08-19T09:50:46.176Z,32.11
2018-08-19T09:53:14.747Z,31.87
2018-08-19T09:55:47.818Z,31.46
2018-08-19T09:58:22.293Z,31.89
2018-08-19T10:00:56.372Z,32.18
2018-08-19T10:03:25.989Z,31.69
2018-08-19T10:05:54.563Z,30.46
2018-08-19T10:08:24.598Z,29.50
2018-08-19T10:10:53.264Z,29.50
2018-08-19T10:13:21.891Z,28.75
2018-08-19T10:15:50.534Z,28.48
2018-08-19T10:18:19.623Z,28.62
2018-08-19T10:20:48.224Z,29.48
2018-08-19T10:23:16.906Z,29.90
2018-08-19T10:25:45.493Z,28.75
2018-08-19T10:28:14.141Z,28.60
2018-08-19T10:30:47.999Z,29.33
2018-08-19T10:33:17.218Z,28.58
2018-08-19T10:35:46.031Z,27.81
2018-08-19T10:38:16.385Z,28.01
2018-08-19T10:40:52.057Z,27.28
2018-08-19T10:43:20.811Z,27.26
2018-08-19T10:45:49.411Z,28.31
2018-08-19T10:48:18.012Z,28.19
2018-08-19T10:50:46.735Z,28.29
2018-08-19T10:53:20.702Z,27.19
2018-08-19T10:55:49.379Z,26.42
2018-08-19T10:58:18.077Z,26.45
2018-08-19T11:00:46.880Z,27.93
2018-08-19T11:03:18.592Z,26.55
2018-08-19T11:05:49.834Z,27.04
2018-08-19T11:08:18.822Z,25.68
2018-08-19T11:10:47.763Z,26.24
2018-08-19T11:13:19.618Z,26.52
2018-08-19T11:15:56.846Z,26.24
2018-08-19T11:18:29.628Z,25.70
2018-08-19T11:21:15.441Z,25.65
2018-08-19T11:23:46.859Z,25.50
2018-08-19T11:26:29.678Z,26.13
2018-08-19T11:28:59.315Z,25.86
2018-08-19T11:31:34.342Z,25.68
2018-08-19T11:34:05.279Z,26.44
2018-08-19T11:36:39.472Z,25.57
2018-08-19T11:39:10.426Z,25.70
2018-08-19T11:41:39.037Z,25.30
2018-08-19T11:44:09.303Z,24.96
2018-08-19T11:46:38.042Z,24.99
2018-08-19T11:49:15.034Z,25.04
2018-08-19T11:51:59.255Z,24.16
2018-08-19T11:54:28.570Z,24.03
2018-08-19T11:57:16.683Z,24.32
2018-08-19T11:59:46.166Z,24.67
2018-08-19T12:02:17.989Z,24.45
2018-08-19T12:04:47.047Z,24.47
2018-08-19T12:07:15.747Z,23.86
2018-08-19T12:10:07.069Z,23.70
2018-08-19T12:12:45.837Z,23.57
2018-08-19T12:15:21.093Z,23.44
2018-08-19T12:17:49.651Z,23.02
2018-08-19T12:20:23.199Z,23.64
2018-08-19T12:22:52.007Z,23.46
2018-08-19T12:25:20.647Z,22.50
2018-08-19T12:27:49.360Z,23.10
2018-08-19T12:30:18.117Z,23.10
2018-08-19T12:32:46.726Z,23.11
2018-08-19T12:35:15.568Z,22.65
2018-08-19T12:37:44.279Z,21.69
2018-08-19T12:40:13.011Z,21.57
2018-08-19T12:42:46.735Z,21.20
2018-08-19T12:45:15.374Z,21.68
2018-08-19T12:47:43.948Z,21.75
2018-08-19T12:50:14.519Z,21.22
2018-08-19T12:52:43.198Z,21.72
2018-08-19T12:55:14.457Z,21.78
2018-08-19T12:57:43.721Z,20.66
2018-08-19T13:00:16.856Z,20.68
2018-08-19T13:49:54.272Z,22.39
2018-08-19T13:52:22.827Z,22.32
2018-08-19T13:55:01.646Z,21.52
2018-08-19T13:57:30.463Z,22.25
2018-08-19T13:59:59.389Z,21.72
2018-08-19T14:02:28.091Z,22.62
2018-08-19T14:04:56.640Z,23.18
2018-08-19T14:07:30.861Z,22.99
2018-08-19T14:09:59.488Z,22.66
2018-08-19T14:12:28.155Z,22.76
2018-08-19T14:14:56.745Z,23.34
2018-08-19T14:17:25.337Z,23.61
2018-08-19T14:19:54.082Z,22.97
2018-08-19T14:22:22.642Z,22.37
2018-08-19T14:24:51.556Z,23.25
2018-08-19T14:27:20.184Z,22.74
2018-08-19T14:29:48.742Z,23.03
2018-08-19T14:32:29.812Z,22.12
2018-08-19T14:34:59.915Z,22.21
2018-08-19T14:37:28.859Z,21.88
2018-08-19T14:39:58.546Z,22.82
2018-08-19T14:42:27.208Z,22.06
2018-08-19T14:44:56.821Z,23.02
2018-08-19T14:47:25.925Z,23.67
2018-08-19T14:49:54.877Z,23.47
2018-08-19T14:52:28.107Z,24.29
2018-08-19T14:54:56.745Z,25.31
2018-08-19T14:57:25.938Z,25.41
2018-08-19T14:59:54.553Z,25.64
2018-08-19T15:02:23.215Z,25.24
2018-08-19T15:04:51.875Z,25.14
2018-08-19T15:10:10.973Z,24.46
2018-08-19T15:12:39.458Z,24.80
2018-08-19T15:15:08.085Z,24.93
2018-08-19T15:17:36.637Z,24.65
2018-08-19T15:20:05.274Z,25.05
2018-08-19T15:22:33.859Z,25.43
2018-08-19T15:25:02.446Z,26.22
2018-08-19T15:27:34.254Z,26.94
2018-08-19T15:30:02.866Z,28.06
2018-08-19T15:32:31.851Z,29.90
2018-08-19T15:35:00.267Z,30.53
2018-08-19T15:37:28.809Z,31.04
2018-08-19T15:39:57.375Z,32.33
2018-08-19T15:42:25.958Z,32.44
2018-08-19T15:44:54.504Z,32.94
2018-08-19T15:47:23.058Z,33.26
2018-08-19T15:50:03.039Z,33.69
2018-08-19T15:52:31.704Z,33.72
2018-08-19T15:55:00.655Z,33.61
2018-08-19T15:57:29.349Z,32.91
2018-08-19T15:59:57.925Z,32.16
2018-08-19T16:02:26.515Z,32.48
2018-08-19T16:04:55.972Z,34.82
2018-08-19T16:07:24.636Z,35.07
2018-08-19T16:09:53.243Z,36.68
2018-08-19T16:12:21.955Z,36.31
2018-08-19T16:14:50.416Z,36.71
2018-08-19T16:23:15.292Z,32.60
2018-08-19T16:25:43.854Z,32.19
2018-08-19T16:28:12.454Z,31.54
2018-08-19T16:30:41.082Z,33.72
2018-08-19T16:33:09.689Z,31.57
2018-08-19T16:35:39.589Z,33.48
2018-08-19T16:38:08.161Z,31.52
2018-08-19T16:40:36.773Z,31.37
2018-08-19T16:43:05.514Z,31.13
2018-08-19T16:45:34.220Z,29.94
2018-08-19T16:48:02.885Z,30.26
2018-08-19T16:50:31.734Z,31.69
2018-08-19T16:53:00.176Z,31.67
2018-08-19T16:55:28.750Z,30.10
2018-08-19T16:57:57.401Z,30.54
2018-08-19T17:00:26.023Z,29.86
2018-08-19T17:02:54.962Z,30.36
2018-08-19T17:05:30.733Z,33.21
2018-08-19T17:07:59.300Z,35.95
2018-08-19T17:10:29.517Z,37.77
2018-08-19T17:12:58.654Z,37.85
2018-08-19T17:15:27.563Z,39.05
2018-08-19T17:17:56.163Z,40.48
2018-08-19T17:20:24.904Z,41.27
2018-08-19T17:22:53.445Z,42.25
2018-08-19T17:25:22.015Z,42.36
2018-08-19T17:27:50.572Z,42.78
2018-08-19T17:30:19.294Z,43.47
2018-08-19T17:32:55.627Z,43.13
2018-08-19T17:35:24.229Z,43.45
2018-08-19T17:37:54.084Z,43.42
2018-08-19T17:40:22.653Z,44.52
2018-08-19T17:42:51.249Z,44.07
2018-08-19T17:45:19.842Z,44.36
2018-08-19T17:47:48.422Z,44.91
2018-08-19T17:50:21.180Z,44.81
2018-08-19T17:52:49.759Z,44.67
2018-08-19T17:55:18.360Z,45.12
2018-08-19T17:57:46.921Z,44.77
2018-08-19T18:00:15.645Z,44.86
2018-08-19T18:02:44.532Z,45.39
2018-08-19T18:05:14.542Z,44.78
2018-08-19T18:07:43.223Z,44.98
2018-08-19T18:10:12.913Z,45.85
2018-08-19T18:12:41.475Z,45.44
2018-08-19T18:15:11.058Z,46.31
2018-08-19T18:17:40.437Z,46.16
2018-08-19T18:20:41.044Z,45.47
2018-08-19T18:23:15.615Z,45.78
2018-08-19T18:25:47.819Z,46.16
2018-08-19T18:28:26.131Z,45.29
2018-08-19T18:31:01.055Z,46.22
2018-08-19T18:33:29.714Z,46.70
2018-08-19T18:35:58.376Z,46.31
2018-08-19T18:38:30.351Z,46.44
2018-08-19T18:40:59.024Z,47.54
2018-08-19T18:43:27.599Z,46.88
2018-08-19T18:45:56.279Z,46.93
2018-08-19T18:48:24.817Z,47.27
2018-08-19T18:50:55.384Z,47.01
2018-08-19T18:53:24.648Z,47.05
2018-08-19T18:55:53.278Z,47.55
2018-08-19T18:58:21.989Z,47.45
2018-08-19T19:00:54.707Z,47.64
2018-08-19T19:03:23.304Z,47.64
2018-08-19T19:05:51.869Z,47.92
2018-08-19T19:08:20.448Z,47.89
2018-08-19T19:10:56.889Z,47.74
2018-08-19T19:13:26.499Z,47.99
2018-08-19T19:15:55.172Z,47.46
2018-08-19T19:18:23.729Z,47.39
2018-08-19T19:20:57.668Z,47.20
2018-08-19T19:23:31.973Z,47.85
2018-08-19T19:26:01.447Z,47.95
2018-08-19T19:28:30.492Z,47.54
2018-08-19T19:31:04.641Z,47.40
2018-08-19T19:33:33.285Z,47.96
2018-08-19T19:36:07.307Z,47.83
2018-08-19T19:38:47.486Z,48.23
2018-08-19T19:41:16.194Z,47.64
2018-08-19T19:43:44.843Z,48.87
2018-08-19T19:46:13.393Z,48.55
2018-08-19T19:48:41.944Z,48.92
2018-08-19T19:51:11.469Z,48.95
2018-08-19T19:53:40.008Z,48.74
2018-08-19T19:56:13.436Z,48.63
2018-08-19T19:58:43.536Z,49.11
2018-08-19T20:01:12.100Z,49.39
2018-08-19T20:03:45.911Z,49.68
2018-08-19T20:06:14.607Z,49.67
2018-08-19T20:08:43.136Z,49.56
2018-08-19T20:11:28.627Z,50.15
2018-08-19T20:13:59.603Z,49.72
2018-08-19T20:16:28.176Z,50.66
2018-08-19T20:18:56.769Z,50.52
2018-08-19T20:21:26.582Z,50.36
2018-08-19T20:23:58.148Z,49.84
2018-08-19T20:26:27.480Z,50.08
2018-08-19T20:28:57.251Z,50.08
2018-08-19T20:31:25.859Z,50.09
2018-08-19T20:33:54.617Z,50.18
2018-08-19T20:36:23.216Z,49.84
2018-08-19T20:38:52.448Z,50.73
2018-08-19T20:41:21.252Z,50.84
2018-08-19T20:43:49.871Z,50.28
2018-08-19T20:46:18.558Z,50.69
2018-08-19T20:48:47.966Z,51.08
2018-08-19T20:51:16.650Z,51.54
2018-08-19T20:53:45.201Z,51.76
2018-08-19T20:56:13.784Z,51.93
2018-08-19T20:58:42.368Z,52.03
2018-08-19T21:01:17.351Z,51.49
2018-08-19T21:03:46.433Z,51.67
2018-08-19T21:06:15.037Z,51.62
2018-08-19T21:08:43.613Z,51.93
2018-08-19T21:11:12.537Z,51.57
2018-08-19T21:13:41.175Z,51.70
2018-08-19T21:16:09.754Z,52.21
2018-08-19T21:18:38.441Z,52.50
2018-08-19T21:21:07.145Z,52.61
2018-08-19T21:23:35.700Z,52.31
2018-08-19T21:26:04.251Z,52.16
2018-08-19T21:28:32.901Z,51.88
2018-08-19T21:31:01.509Z,52.31
2018-08-19T21:33:30.110Z,51.98
2018-08-19T21:35:58.749Z,51.99
2018-08-19T21:38:27.495Z,52.84
2018-08-19T21:40:57.397Z,52.90
2018-08-19T21:43:28.654Z,52.33
2018-08-19T21:45:58.451Z,52.41
2018-08-19T21:48:27.882Z,52.46
2018-08-19T21:50:56.480Z,52.58
2018-08-19T21:53:25.055Z,52.24
2018-08-19T21:55:53.924Z,52.16
2018-08-19T21:58:22.603Z,51.72
2018-08-19T22:01:00.798Z,52.24
2018-08-19T22:03:34.757Z,51.68
2018-08-19T22:06:06.971Z,52.31
2018-08-19T22:08:35.631Z,52.22
2018-08-19T22:11:04.284Z,51.83
2018-08-19T22:13:32.864Z,51.90
2018-08-19T22:16:01.463Z,51.78
2018-08-19T22:21:32.563Z,52.08
2018-08-19T22:24:01.143Z,51.91
2018-08-19T22:26:29.711Z,52.21
2018-08-19T22:29:11.473Z,52.25
2018-08-19T22:31:40.146Z,52.53
2018-08-19T22:34:08.699Z,52.74
2018-08-19T22:36:37.372Z,52.72
2018-08-19T22:39:09.294Z,52.56
2018-08-19T22:41:37.947Z,53.09
2018-08-19T22:44:06.551Z,52.79
2018-08-19T22:46:35.149Z,52.61
2018-08-19T22:49:03.967Z,53.00
2018-08-19T22:51:33.727Z,53.43
2018-08-19T22:54:02.299Z,53.35
2018-08-19T22:56:30.908Z,53.27
2018-08-19T22:58:59.486Z,53.06
2018-08-19T23:01:33.391Z,53.26
2018-08-19T23:04:03.050Z,53.42
2018-08-19T23:06:32.303Z,54.20
2018-08-19T23:09:01.296Z,53.70
2018-08-19T23:11:35.939Z,53.48
2018-08-19T23:14:16.004Z,53.63
2018-08-19T23:16:44.697Z,54.45
2018-08-19T23:19:13.448Z,53.56
2018-08-19T23:21:42.034Z,53.72
2018-08-19T23:24:10.623Z,53.59
2018-08-19T23:26:39.229Z,53.69
2018-08-19T23:29:07.886Z,53.66
2018-08-19T23:31:36.440Z,53.84
2018-08-19T23:34:05.007Z,53.74
2018-08-19T23:36:33.592Z,53.17
2018-08-19T23:39:02.245Z,53.35
2018-08-19T23:41:30.858Z,53.27
2018-08-19T23:43:59.436Z,53.07
2018-08-19T23:46:28.159Z,53.64
2018-08-19T23:48:56.756Z,52.84
2018-08-19T23:51:29.294Z,53.21
2018-08-19T23:53:59.063Z,53.50
2018-08-19T23:56:28.007Z,53.31
2018-08-19T23:58:56.863Z,53.74
